sensor_id;sensor_type;location;lat;lon;timestamp;P1;durP1;ratioP1;P2;durP2;ratioP2
63370;SDS011;72561;48.336;14.472;2023-12-14T00:01:39;4.97;;;3.70;;
63370;SDS011;72561;48.336;14.472;2023-12-14T00:03:20;4.85;;;3.47;;
63370;SDS011;72561;48.336;14.472;2023-12-14T00:05:01;5.43;;;4.07;;
63370;SDS011;72561;48.336;14.472;2023-12-14T00:06:43;4.95;;;3.60;;
63370;SDS011;72561;48.336;14.472;2023-12-14T00:08:26;4.57;;;3.28;;
63370;SDS011;72561;48.336;14.472;2023-12-14T00:10:07;5.38;;;3.63;;
63370;SDS011;72561;48.336;14.472;2023-12-14T00:11:49;4.72;;;3.40;;
63370;SDS011;72561;48.336;14.472;2023-12-14T00:13:30;4.90;;;3.53;;
63370;SDS011;72561;48.336;14.472;2023-12-14T00:15:11;5.18;;;3.58;;
63370;SDS011;72561;48.336;14.472;2023-12-14T00:16:52;5.60;;;3.30;;
63370;SDS011;72561;48.336;14.472;2023-12-14T00:18:33;4.28;;;3.28;;
63370;SDS011;72561;48.336;14.472;2023-12-14T00:20:16;4.65;;;3.30;;
63370;SDS011;72561;48.336;14.472;2023-12-14T00:21:57;4.93;;;3.30;;
63370;SDS011;72561;48.336;14.472;2023-12-14T00:23:39;4.45;;;3.30;;
63370;SDS011;72561;48.336;14.472;2023-12-14T00:25:21;4.70;;;3.45;;
63370;SDS011;72561;48.336;14.472;2023-12-14T00:27:02;4.95;;;3.70;;
63370;SDS011;72561;48.336;14.472;2023-12-14T00:28:43;5.60;;;3.85;;
63370;SDS011;72561;48.336;14.472;2023-12-14T00:30:24;4.53;;;3.42;;
63370;SDS011;72561;48.336;14.472;2023-12-14T00:32:06;4.38;;;3.13;;
63370;SDS011;72561;48.336;14.472;2023-12-14T00:33:47;4.10;;;2.90;;
63370;SDS011;72561;48.336;14.472;2023-12-14T00:35:28;4.43;;;3.13;;
63370;SDS011;72561;48.336;14.472;2023-12-14T00:37:09;4.55;;;3.50;;
63370;SDS011;72561;48.336;14.472;2023-12-14T00:39:15;4.77;;;3.23;;
63370;SDS011;72561;48.336;14.472;2023-12-14T00:40:56;4.60;;;3.03;;
63370;SDS011;72561;48.336;14.472;2023-12-14T00:42:37;4.80;;;3.45;;
63370;SDS011;72561;48.336;14.472;2023-12-14T00:44:18;4.30;;;3.30;;
63370;SDS011;72561;48.336;14.472;2023-12-14T00:45:59;4.75;;;3.53;;
63370;SDS011;72561;48.336;14.472;2023-12-14T00:47:40;5.00;;;3.40;;
63370;SDS011;72561;48.336;14.472;2023-12-14T00:49:21;5.15;;;3.60;;
63370;SDS011;72561;48.336;14.472;2023-12-14T00:51:02;4.28;;;3.00;;
63370;SDS011;72561;48.336;14.472;2023-12-14T00:52:44;4.75;;;3.38;;
63370;SDS011;72561;48.336;14.472;2023-12-14T00:54:27;4.07;;;2.92;;
63370;SDS011;72561;48.336;14.472;2023-12-14T00:56:08;3.97;;;2.95;;
63370;SDS011;72561;48.336;14.472;2023-12-14T00:57:49;5.55;;;3.25;;
63370;SDS011;72561;48.336;14.472;2023-12-14T00:59:31;5.22;;;3.30;;
63370;SDS011;72561;48.336;14.472;2023-12-14T01:01:12;4.30;;;3.17;;
63370;SDS011;72561;48.336;14.472;2023-12-14T01:02:53;4.28;;;3.15;;
63370;SDS011;72561;48.336;14.472;2023-12-14T01:04:34;4.65;;;3.20;;
63370;SDS011;72561;48.336;14.472;2023-12-14T01:06:15;4.82;;;3.45;;
63370;SDS011;72561;48.336;14.472;2023-12-14T01:07:56;4.63;;;3.35;;
63370;SDS011;72561;48.336;14.472;2023-12-14T01:09:39;4.22;;;3.30;;
63370;SDS011;72561;48.336;14.472;2023-12-14T01:11:20;4.53;;;3.50;;
63370;SDS011;72561;48.336;14.472;2023-12-14T01:13:01;4.57;;;3.00;;
63370;SDS011;72561;48.336;14.472;2023-12-14T01:14:42;4.53;;;3.22;;
63370;SDS011;72561;48.336;14.472;2023-12-14T01:16:25;4.85;;;3.05;;
63370;SDS011;72561;48.336;14.472;2023-12-14T01:18:06;4.35;;;3.10;;
63370;SDS011;72561;48.336;14.472;2023-12-14T01:19:48;4.40;;;3.20;;
63370;SDS011;72561;48.336;14.472;2023-12-14T01:21:29;4.60;;;2.72;;
63370;SDS011;72561;48.336;14.472;2023-12-14T01:23:10;4.30;;;2.95;;
63370;SDS011;72561;48.336;14.472;2023-12-14T01:24:52;4.97;;;3.53;;
63370;SDS011;72561;48.336;14.472;2023-12-14T01:26:34;4.57;;;3.28;;
63370;SDS011;72561;48.336;14.472;2023-12-14T01:28:15;4.30;;;3.20;;
63370;SDS011;72561;48.336;14.472;2023-12-14T01:29:56;4.43;;;2.78;;
63370;SDS011;72561;48.336;14.472;2023-12-14T01:31:37;4.35;;;3.17;;
63370;SDS011;72561;48.336;14.472;2023-12-14T01:33:18;4.32;;;3.03;;
63370;SDS011;72561;48.336;14.472;2023-12-14T01:34:59;4.10;;;2.83;;
63370;SDS011;72561;48.336;14.472;2023-12-14T01:36:40;4.70;;;3.05;;
63370;SDS011;72561;48.336;14.472;2023-12-14T01:38:22;4.27;;;3.00;;
63370;SDS011;72561;48.336;14.472;2023-12-14T01:40:05;4.43;;;3.20;;
63370;SDS011;72561;48.336;14.472;2023-12-14T01:41:47;4.47;;;2.88;;
63370;SDS011;72561;48.336;14.472;2023-12-14T01:43:28;3.95;;;2.72;;
63370;SDS011;72561;48.336;14.472;2023-12-14T01:45:10;4.10;;;2.75;;
63370;SDS011;72561;48.336;14.472;2023-12-14T01:46:51;4.25;;;2.72;;
63370;SDS011;72561;48.336;14.472;2023-12-14T01:48:32;4.55;;;2.75;;
63370;SDS011;72561;48.336;14.472;2023-12-14T01:50:13;4.40;;;3.05;;
63370;SDS011;72561;48.336;14.472;2023-12-14T01:51:54;3.97;;;2.90;;
63370;SDS011;72561;48.336;14.472;2023-12-14T01:53:35;3.92;;;2.70;;
63370;SDS011;72561;48.336;14.472;2023-12-14T01:55:18;4.18;;;2.80;;
63370;SDS011;72561;48.336;14.472;2023-12-14T01:56:59;3.95;;;2.83;;
63370;SDS011;72561;48.336;14.472;2023-12-14T01:58:40;4.32;;;3.03;;
63370;SDS011;72561;48.336;14.472;2023-12-14T02:00:23;4.38;;;2.63;;
63370;SDS011;72561;48.336;14.472;2023-12-14T02:02:10;4.25;;;2.90;;
63370;SDS011;72561;48.336;14.472;2023-12-14T02:03:51;4.05;;;2.85;;
63370;SDS011;72561;48.336;14.472;2023-12-14T02:05:33;4.60;;;3.05;;
63370;SDS011;72561;48.336;14.472;2023-12-14T02:07:14;5.00;;;2.70;;
63370;SDS011;72561;48.336;14.472;2023-12-14T02:08:55;3.58;;;2.50;;
63370;SDS011;72561;48.336;14.472;2023-12-14T02:10:38;4.00;;;2.92;;
63370;SDS011;72561;48.336;14.472;2023-12-14T02:12:19;4.05;;;2.78;;
63370;SDS011;72561;48.336;14.472;2023-12-14T02:14:03;3.70;;;2.58;;
63370;SDS011;72561;48.336;14.472;2023-12-14T02:15:44;4.03;;;2.85;;
63370;SDS011;72561;48.336;14.472;2023-12-14T02:17:25;3.92;;;2.72;;
63370;SDS011;72561;48.336;14.472;2023-12-14T02:19:06;3.97;;;2.70;;
63370;SDS011;72561;48.336;14.472;2023-12-14T02:20:47;4.07;;;2.80;;
63370;SDS011;72561;48.336;14.472;2023-12-14T02:22:33;4.07;;;2.90;;
63370;SDS011;72561;48.336;14.472;2023-12-14T02:24:16;4.43;;;2.88;;
63370;SDS011;72561;48.336;14.472;2023-12-14T02:25:57;4.53;;;2.80;;
63370;SDS011;72561;48.336;14.472;2023-12-14T02:27:38;4.25;;;3.10;;
63370;SDS011;72561;48.336;14.472;2023-12-14T02:29:19;4.50;;;2.70;;
63370;SDS011;72561;48.336;14.472;2023-12-14T02:31:00;4.30;;;2.83;;
63370;SDS011;72561;48.336;14.472;2023-12-14T02:32:42;3.65;;;2.45;;
63370;SDS011;72561;48.336;14.472;2023-12-14T02:34:23;4.28;;;2.85;;
63370;SDS011;72561;48.336;14.472;2023-12-14T02:36:04;4.28;;;2.90;;
63370;SDS011;72561;48.336;14.472;2023-12-14T02:39:29;3.92;;;2.72;;
63370;SDS011;72561;48.336;14.472;2023-12-14T02:41:10;4.20;;;2.70;;
63370;SDS011;72561;48.336;14.472;2023-12-14T02:42:51;4.30;;;2.60;;
63370;SDS011;72561;48.336;14.472;2023-12-14T02:44:32;3.92;;;2.80;;
63370;SDS011;72561;48.336;14.472;2023-12-14T02:46:13;3.88;;;2.75;;
63370;SDS011;72561;48.336;14.472;2023-12-14T02:47:55;4.38;;;2.70;;
63370;SDS011;72561;48.336;14.472;2023-12-14T02:49:36;3.80;;;2.63;;
63370;SDS011;72561;48.336;14.472;2023-12-14T02:51:17;4.00;;;2.60;;
63370;SDS011;72561;48.336;14.472;2023-12-14T02:52:59;3.92;;;2.75;;
63370;SDS011;72561;48.336;14.472;2023-12-14T02:54:40;4.07;;;2.70;;
63370;SDS011;72561;48.336;14.472;2023-12-14T02:56:22;4.35;;;2.88;;
63370;SDS011;72561;48.336;14.472;2023-12-14T02:58:03;3.97;;;2.60;;
63370;SDS011;72561;48.336;14.472;2023-12-14T02:59:44;3.72;;;2.42;;
63370;SDS011;72561;48.336;14.472;2023-12-14T03:01:25;3.72;;;2.45;;
63370;SDS011;72561;48.336;14.472;2023-12-14T03:03:06;3.63;;;2.50;;
63370;SDS011;72561;48.336;14.472;2023-12-14T03:04:47;3.90;;;2.58;;
63370;SDS011;72561;48.336;14.472;2023-12-14T03:06:28;3.63;;;2.58;;
63370;SDS011;72561;48.336;14.472;2023-12-14T03:08:11;3.67;;;2.35;;
63370;SDS011;72561;48.336;14.472;2023-12-14T03:09:52;4.00;;;2.50;;
63370;SDS011;72561;48.336;14.472;2023-12-14T03:11:33;4.10;;;2.60;;
63370;SDS011;72561;48.336;14.472;2023-12-14T03:13:14;3.97;;;2.55;;
63370;SDS011;72561;48.336;14.472;2023-12-14T03:14:55;3.63;;;2.63;;
63370;SDS011;72561;48.336;14.472;2023-12-14T03:16:36;3.65;;;2.63;;
63370;SDS011;72561;48.336;14.472;2023-12-14T03:18:18;4.10;;;2.42;;
63370;SDS011;72561;48.336;14.472;2023-12-14T03:19:59;3.65;;;2.38;;
63370;SDS011;72561;48.336;14.472;2023-12-14T03:21:40;3.95;;;2.35;;
63370;SDS011;72561;48.336;14.472;2023-12-14T03:23:22;3.95;;;2.70;;
63370;SDS011;72561;48.336;14.472;2023-12-14T03:25:04;4.15;;;2.78;;
63370;SDS011;72561;48.336;14.472;2023-12-14T03:26:47;4.97;;;2.55;;
63370;SDS011;72561;48.336;14.472;2023-12-14T03:28:28;6.82;;;3.25;;
63370;SDS011;72561;48.336;14.472;2023-12-14T03:30:09;7.88;;;3.50;;
63370;SDS011;72561;48.336;14.472;2023-12-14T03:31:51;7.00;;;3.30;;
63370;SDS011;72561;48.336;14.472;2023-12-14T03:33:32;5.88;;;3.22;;
63370;SDS011;72561;48.336;14.472;2023-12-14T03:35:13;7.15;;;3.40;;
63370;SDS011;72561;48.336;14.472;2023-12-14T03:36:54;5.38;;;3.30;;
63370;SDS011;72561;48.336;14.472;2023-12-14T03:38:37;7.13;;;3.42;;
63370;SDS011;72561;48.336;14.472;2023-12-14T03:40:18;6.60;;;3.53;;
63370;SDS011;72561;48.336;14.472;2023-12-14T03:41:59;6.40;;;3.70;;
63370;SDS011;72561;48.336;14.472;2023-12-14T03:43:40;6.53;;;3.30;;
63370;SDS011;72561;48.336;14.472;2023-12-14T03:45:21;8.85;;;3.63;;
63370;SDS011;72561;48.336;14.472;2023-12-14T03:47:03;6.22;;;3.10;;
63370;SDS011;72561;48.336;14.472;2023-12-14T03:48:44;7.57;;;3.58;;
63370;SDS011;72561;48.336;14.472;2023-12-14T03:50:25;7.47;;;3.22;;
63370;SDS011;72561;48.336;14.472;2023-12-14T03:52:12;6.55;;;4.05;;
63370;SDS011;72561;48.336;14.472;2023-12-14T03:53:54;8.05;;;3.30;;
63370;SDS011;72561;48.336;14.472;2023-12-14T03:55:35;6.40;;;3.40;;
63370;SDS011;72561;48.336;14.472;2023-12-14T03:57:16;6.70;;;3.28;;
63370;SDS011;72561;48.336;14.472;2023-12-14T03:58:57;6.57;;;3.72;;
63370;SDS011;72561;48.336;14.472;2023-12-14T04:00:39;5.72;;;3.22;;
63370;SDS011;72561;48.336;14.472;2023-12-14T04:02:20;5.82;;;3.28;;
63370;SDS011;72561;48.336;14.472;2023-12-14T04:04:01;6.32;;;2.83;;
63370;SDS011;72561;48.336;14.472;2023-12-14T04:05:42;7.20;;;3.70;;
63370;SDS011;72561;48.336;14.472;2023-12-14T04:07:23;6.47;;;3.85;;
63370;SDS011;72561;48.336;14.472;2023-12-14T04:09:06;5.75;;;3.17;;
63370;SDS011;72561;48.336;14.472;2023-12-14T04:10:47;6.18;;;3.40;;
63370;SDS011;72561;48.336;14.472;2023-12-14T04:12:28;6.45;;;3.65;;
63370;SDS011;72561;48.336;14.472;2023-12-14T04:14:09;5.97;;;3.58;;
63370;SDS011;72561;48.336;14.472;2023-12-14T04:15:50;6.15;;;3.63;;
63370;SDS011;72561;48.336;14.472;2023-12-14T04:17:31;7.30;;;3.35;;
63370;SDS011;72561;48.336;14.472;2023-12-14T04:19:13;8.43;;;3.90;;
63370;SDS011;72561;48.336;14.472;2023-12-14T04:20:54;7.22;;;3.25;;
63370;SDS011;72561;48.336;14.472;2023-12-14T04:22:35;6.32;;;3.30;;
63370;SDS011;72561;48.336;14.472;2023-12-14T04:24:18;7.72;;;3.45;;
63370;SDS011;72561;48.336;14.472;2023-12-14T04:25:59;10.93;;;3.90;;
63370;SDS011;72561;48.336;14.472;2023-12-14T04:27:40;8.20;;;3.88;;
63370;SDS011;72561;48.336;14.472;2023-12-14T04:29:21;6.25;;;3.60;;
63370;SDS011;72561;48.336;14.472;2023-12-14T04:31:08;6.63;;;3.47;;
63370;SDS011;72561;48.336;14.472;2023-12-14T04:32:49;7.25;;;3.60;;
63370;SDS011;72561;48.336;14.472;2023-12-14T04:34:30;7.60;;;3.00;;
63370;SDS011;72561;48.336;14.472;2023-12-14T04:36:11;6.53;;;3.72;;
63370;SDS011;72561;48.336;14.472;2023-12-14T04:37:53;8.65;;;3.53;;
63370;SDS011;72561;48.336;14.472;2023-12-14T04:39:35;7.93;;;3.60;;
63370;SDS011;72561;48.336;14.472;2023-12-14T04:41:16;6.28;;;3.33;;
63370;SDS011;72561;48.336;14.472;2023-12-14T04:43:01;7.03;;;3.25;;
63370;SDS011;72561;48.336;14.472;2023-12-14T04:44:42;5.80;;;3.15;;
63370;SDS011;72561;48.336;14.472;2023-12-14T04:46:23;9.35;;;3.60;;
63370;SDS011;72561;48.336;14.472;2023-12-14T04:48:05;6.97;;;3.40;;
63370;SDS011;72561;48.336;14.472;2023-12-14T04:49:46;7.55;;;3.53;;
63370;SDS011;72561;48.336;14.472;2023-12-14T04:51:27;9.35;;;3.35;;
63370;SDS011;72561;48.336;14.472;2023-12-14T04:53:08;6.63;;;3.53;;
63370;SDS011;72561;48.336;14.472;2023-12-14T04:55:03;8.70;;;3.70;;
63370;SDS011;72561;48.336;14.472;2023-12-14T04:56:46;7.85;;;3.33;;
63370;SDS011;72561;48.336;14.472;2023-12-14T04:58:27;7.25;;;3.60;;
63370;SDS011;72561;48.336;14.472;2023-12-14T05:00:09;9.10;;;3.95;;
63370;SDS011;72561;48.336;14.472;2023-12-14T05:01:52;11.13;;;4.95;;
63370;SDS011;72561;48.336;14.472;2023-12-14T05:03:33;9.43;;;4.40;;
63370;SDS011;72561;48.336;14.472;2023-12-14T05:05:15;11.18;;;4.47;;
63370;SDS011;72561;48.336;14.472;2023-12-14T05:06:56;8.90;;;3.88;;
63370;SDS011;72561;48.336;14.472;2023-12-14T05:08:37;9.88;;;3.70;;
63370;SDS011;72561;48.336;14.472;2023-12-14T05:10:19;8.15;;;3.95;;
63370;SDS011;72561;48.336;14.472;2023-12-14T05:12:00;7.60;;;3.70;;
63370;SDS011;72561;48.336;14.472;2023-12-14T05:13:42;6.45;;;3.42;;
63370;SDS011;72561;48.336;14.472;2023-12-14T05:15:23;6.10;;;3.40;;
63370;SDS011;72561;48.336;14.472;2023-12-14T05:17:04;8.07;;;3.85;;
63370;SDS011;72561;48.336;14.472;2023-12-14T05:18:45;9.10;;;3.85;;
63370;SDS011;72561;48.336;14.472;2023-12-14T05:20:27;7.65;;;3.83;;
63370;SDS011;72561;48.336;14.472;2023-12-14T05:22:08;8.82;;;3.80;;
63370;SDS011;72561;48.336;14.472;2023-12-14T05:23:49;8.52;;;4.15;;
63370;SDS011;72561;48.336;14.472;2023-12-14T05:25:32;9.80;;;3.80;;
63370;SDS011;72561;48.336;14.472;2023-12-14T05:27:16;7.78;;;3.55;;
63370;SDS011;72561;48.336;14.472;2023-12-14T05:29:02;8.98;;;3.90;;
63370;SDS011;72561;48.336;14.472;2023-12-14T05:30:43;7.65;;;4.00;;
63370;SDS011;72561;48.336;14.472;2023-12-14T05:32:24;8.50;;;3.50;;
63370;SDS011;72561;48.336;14.472;2023-12-14T05:34:05;13.68;;;3.53;;
63370;SDS011;72561;48.336;14.472;2023-12-14T05:35:46;5.28;;;3.20;;
63370;SDS011;72561;48.336;14.472;2023-12-14T05:37:28;7.80;;;3.55;;
63370;SDS011;72561;48.336;14.472;2023-12-14T05:39:09;9.93;;;4.00;;
63370;SDS011;72561;48.336;14.472;2023-12-14T05:40:55;8.02;;;3.63;;
63370;SDS011;72561;48.336;14.472;2023-12-14T05:42:36;6.47;;;3.40;;
63370;SDS011;72561;48.336;14.472;2023-12-14T05:45:41;6.63;;;3.10;;
63370;SDS011;72561;48.336;14.472;2023-12-14T05:47:22;7.78;;;3.70;;
63370;SDS011;72561;48.336;14.472;2023-12-14T05:49:03;8.60;;;3.50;;
63370;SDS011;72561;48.336;14.472;2023-12-14T05:50:44;9.10;;;3.50;;
63370;SDS011;72561;48.336;14.472;2023-12-14T05:52:25;8.23;;;3.90;;
63370;SDS011;72561;48.336;14.472;2023-12-14T05:55:06;8.02;;;3.08;;
63370;SDS011;72561;48.336;14.472;2023-12-14T05:56:48;10.20;;;3.40;;
63370;SDS011;72561;48.336;14.472;2023-12-14T05:58:29;7.15;;;3.53;;
63370;SDS011;72561;48.336;14.472;2023-12-14T06:00:11;6.50;;;2.90;;
63370;SDS011;72561;48.336;14.472;2023-12-14T06:01:56;7.05;;;3.30;;
63370;SDS011;72561;48.336;14.472;2023-12-14T06:03:37;7.20;;;3.15;;
63370;SDS011;72561;48.336;14.472;2023-12-14T06:05:19;5.40;;;2.92;;
63370;SDS011;72561;48.336;14.472;2023-12-14T06:07:01;5.70;;;3.03;;
63370;SDS011;72561;48.336;14.472;2023-12-14T06:08:42;5.18;;;3.28;;
63370;SDS011;72561;48.336;14.472;2023-12-14T06:10:25;7.60;;;3.47;;
63370;SDS011;72561;48.336;14.472;2023-12-14T06:12:06;5.43;;;2.90;;
63370;SDS011;72561;48.336;14.472;2023-12-14T06:13:47;6.90;;;3.10;;
63370;SDS011;72561;48.336;14.472;2023-12-14T06:15:28;7.10;;;3.22;;
63370;SDS011;72561;48.336;14.472;2023-12-14T06:17:09;9.65;;;3.25;;
63370;SDS011;72561;48.336;14.472;2023-12-14T06:18:50;5.38;;;3.03;;
63370;SDS011;72561;48.336;14.472;2023-12-14T06:20:32;6.43;;;3.20;;
63370;SDS011;72561;48.336;14.472;2023-12-14T06:22:13;8.43;;;3.20;;
63370;SDS011;72561;48.336;14.472;2023-12-14T06:23:54;5.25;;;2.88;;
63370;SDS011;72561;48.336;14.472;2023-12-14T06:25:37;5.78;;;3.17;;
63370;SDS011;72561;48.336;14.472;2023-12-14T06:27:19;6.38;;;3.63;;
63370;SDS011;72561;48.336;14.472;2023-12-14T06:29:02;6.38;;;3.50;;
63370;SDS011;72561;48.336;14.472;2023-12-14T06:30:43;5.70;;;2.85;;
63370;SDS011;72561;48.336;14.472;2023-12-14T06:32:25;5.85;;;3.00;;
63370;SDS011;72561;48.336;14.472;2023-12-14T06:34:06;6.80;;;3.28;;
63370;SDS011;72561;48.336;14.472;2023-12-14T06:35:48;5.82;;;3.08;;
63370;SDS011;72561;48.336;14.472;2023-12-14T06:37:29;4.93;;;2.83;;
63370;SDS011;72561;48.336;14.472;2023-12-14T06:39:11;6.20;;;3.28;;
63370;SDS011;72561;48.336;14.472;2023-12-14T06:40:56;5.00;;;2.60;;
63370;SDS011;72561;48.336;14.472;2023-12-14T06:42:37;8.05;;;3.17;;
63370;SDS011;72561;48.336;14.472;2023-12-14T06:44:18;5.45;;;3.13;;
63370;SDS011;72561;48.336;14.472;2023-12-14T06:46:00;5.68;;;2.80;;
63370;SDS011;72561;48.336;14.472;2023-12-14T06:47:41;5.75;;;3.10;;
63370;SDS011;72561;48.336;14.472;2023-12-14T06:49:22;4.82;;;2.80;;
63370;SDS011;72561;48.336;14.472;2023-12-14T06:51:03;5.28;;;2.47;;
63370;SDS011;72561;48.336;14.472;2023-12-14T06:52:44;6.00;;;2.75;;
63370;SDS011;72561;48.336;14.472;2023-12-14T06:54:25;5.07;;;2.95;;
63370;SDS011;72561;48.336;14.472;2023-12-14T06:56:08;5.32;;;2.90;;
63370;SDS011;72561;48.336;14.472;2023-12-14T06:57:50;6.57;;;2.97;;
63370;SDS011;72561;48.336;14.472;2023-12-14T06:59:31;5.40;;;3.00;;
63370;SDS011;72561;48.336;14.472;2023-12-14T07:01:12;4.68;;;2.85;;
63370;SDS011;72561;48.336;14.472;2023-12-14T07:02:54;5.53;;;3.22;;
63370;SDS011;72561;48.336;14.472;2023-12-14T07:04:35;5.72;;;2.90;;
63370;SDS011;72561;48.336;14.472;2023-12-14T07:06:17;6.22;;;2.75;;
63370;SDS011;72561;48.336;14.472;2023-12-14T07:07:59;5.50;;;3.20;;
63370;SDS011;72561;48.336;14.472;2023-12-14T07:09:40;4.80;;;2.33;;
63370;SDS011;72561;48.336;14.472;2023-12-14T07:11:22;5.82;;;3.00;;
63370;SDS011;72561;48.336;14.472;2023-12-14T07:13:04;5.00;;;2.78;;
63370;SDS011;72561;48.336;14.472;2023-12-14T07:14:45;4.75;;;2.90;;
63370;SDS011;72561;48.336;14.472;2023-12-14T07:16:26;5.68;;;2.40;;
63370;SDS011;72561;48.336;14.472;2023-12-14T07:18:07;4.38;;;2.60;;
63370;SDS011;72561;48.336;14.472;2023-12-14T07:19:49;4.65;;;2.67;;
63370;SDS011;72561;48.336;14.472;2023-12-14T07:21:31;4.93;;;2.45;;
63370;SDS011;72561;48.336;14.472;2023-12-14T07:23:12;4.57;;;2.80;;
63370;SDS011;72561;48.336;14.472;2023-12-14T07:24:53;4.75;;;2.60;;
63370;SDS011;72561;48.336;14.472;2023-12-14T07:26:36;5.55;;;2.45;;
63370;SDS011;72561;48.336;14.472;2023-12-14T07:28:17;6.13;;;2.70;;
63370;SDS011;72561;48.336;14.472;2023-12-14T07:29:58;4.70;;;2.80;;
63370;SDS011;72561;48.336;14.472;2023-12-14T07:31:39;5.20;;;2.67;;
63370;SDS011;72561;48.336;14.472;2023-12-14T07:33:20;5.47;;;2.85;;
63370;SDS011;72561;48.336;14.472;2023-12-14T07:35:02;4.60;;;2.70;;
63370;SDS011;72561;48.336;14.472;2023-12-14T07:36:44;4.20;;;2.50;;
63370;SDS011;72561;48.336;14.472;2023-12-14T07:38:25;4.85;;;2.70;;
63370;SDS011;72561;48.336;14.472;2023-12-14T07:40:06;5.53;;;3.00;;
63370;SDS011;72561;48.336;14.472;2023-12-14T07:41:50;5.28;;;2.20;;
63370;SDS011;72561;48.336;14.472;2023-12-14T07:43:31;4.95;;;2.65;;
63370;SDS011;72561;48.336;14.472;2023-12-14T07:45:12;4.80;;;2.58;;
63370;SDS011;72561;48.336;14.472;2023-12-14T07:46:53;4.03;;;2.40;;
63370;SDS011;72561;48.336;14.472;2023-12-14T07:48:34;4.72;;;2.38;;
63370;SDS011;72561;48.336;14.472;2023-12-14T07:50:15;4.32;;;2.33;;
63370;SDS011;72561;48.336;14.472;2023-12-14T07:51:58;4.95;;;2.60;;
63370;SDS011;72561;48.336;14.472;2023-12-14T07:53:39;3.95;;;2.38;;
63370;SDS011;72561;48.336;14.472;2023-12-14T07:55:20;4.28;;;2.42;;
63370;SDS011;72561;48.336;14.472;2023-12-14T07:57:03;4.10;;;2.30;;
63370;SDS011;72561;48.336;14.472;2023-12-14T07:58:44;6.13;;;2.53;;
63370;SDS011;72561;48.336;14.472;2023-12-14T08:00:25;4.10;;;2.17;;
63370;SDS011;72561;48.336;14.472;2023-12-14T08:02:06;4.30;;;2.38;;
63370;SDS011;72561;48.336;14.472;2023-12-14T08:03:47;4.47;;;2.55;;
63370;SDS011;72561;48.336;14.472;2023-12-14T08:05:28;5.10;;;2.47;;
63370;SDS011;72561;48.336;14.472;2023-12-14T08:07:09;4.47;;;2.13;;
63370;SDS011;72561;48.336;14.472;2023-12-14T08:08:51;4.80;;;2.30;;
63370;SDS011;72561;48.336;14.472;2023-12-14T08:10:32;4.50;;;2.38;;
63370;SDS011;72561;48.336;14.472;2023-12-14T08:12:14;4.05;;;2.42;;
63370;SDS011;72561;48.336;14.472;2023-12-14T08:13:55;3.70;;;2.33;;
63370;SDS011;72561;48.336;14.472;2023-12-14T08:15:37;3.95;;;2.28;;
63370;SDS011;72561;48.336;14.472;2023-12-14T08:17:18;4.20;;;2.25;;
63370;SDS011;72561;48.336;14.472;2023-12-14T08:18:59;4.63;;;2.60;;
63370;SDS011;72561;48.336;14.472;2023-12-14T08:20:40;4.28;;;2.38;;
63370;SDS011;72561;48.336;14.472;2023-12-14T08:22:21;4.25;;;2.45;;
63370;SDS011;72561;48.336;14.472;2023-12-14T08:24:02;3.85;;;2.13;;
63370;SDS011;72561;48.336;14.472;2023-12-14T08:25:44;3.67;;;2.22;;
63370;SDS011;72561;48.336;14.472;2023-12-14T08:27:27;4.03;;;2.37;;
63370;SDS011;72561;48.336;14.472;2023-12-14T08:29:08;4.20;;;2.10;;
63370;SDS011;72561;48.336;14.472;2023-12-14T08:31:09;4.20;;;2.33;;
63370;SDS011;72561;48.336;14.472;2023-12-14T08:32:50;4.50;;;2.33;;
63370;SDS011;72561;48.336;14.472;2023-12-14T08:34:31;3.78;;;2.17;;
63370;SDS011;72561;48.336;14.472;2023-12-14T08:36:14;3.92;;;2.20;;
63370;SDS011;72561;48.336;14.472;2023-12-14T08:37:56;3.95;;;2.10;;
63370;SDS011;72561;48.336;14.472;2023-12-14T08:39:37;4.68;;;2.38;;
63370;SDS011;72561;48.336;14.472;2023-12-14T08:41:18;4.72;;;2.13;;
63370;SDS011;72561;48.336;14.472;2023-12-14T08:42:59;4.38;;;2.38;;
63370;SDS011;72561;48.336;14.472;2023-12-14T08:44:40;3.90;;;1.90;;
63370;SDS011;72561;48.336;14.472;2023-12-14T08:46:23;4.03;;;2.30;;
63370;SDS011;72561;48.336;14.472;2023-12-14T08:48:04;4.95;;;2.63;;
63370;SDS011;72561;48.336;14.472;2023-12-14T08:49:46;5.05;;;2.47;;
63370;SDS011;72561;48.336;14.472;2023-12-14T08:51:27;3.97;;;2.00;;
63370;SDS011;72561;48.336;14.472;2023-12-14T08:53:08;3.80;;;2.08;;
63370;SDS011;72561;48.336;14.472;2023-12-14T08:54:49;4.25;;;2.20;;
63370;SDS011;72561;48.336;14.472;2023-12-14T08:56:30;3.83;;;2.08;;
63370;SDS011;72561;48.336;14.472;2023-12-14T08:58:12;3.88;;;2.13;;
63370;SDS011;72561;48.336;14.472;2023-12-14T08:59:53;3.95;;;2.10;;
63370;SDS011;72561;48.336;14.472;2023-12-14T09:01:35;3.92;;;2.13;;
63370;SDS011;72561;48.336;14.472;2023-12-14T09:03:16;4.20;;;2.22;;
63370;SDS011;72561;48.336;14.472;2023-12-14T09:04:57;3.88;;;2.13;;
63370;SDS011;72561;48.336;14.472;2023-12-14T09:06:39;4.57;;;2.10;;
63370;SDS011;72561;48.336;14.472;2023-12-14T09:08:20;3.88;;;2.15;;
63370;SDS011;72561;48.336;14.472;2023-12-14T09:10:01;4.18;;;2.20;;
63370;SDS011;72561;48.336;14.472;2023-12-14T09:11:42;4.22;;;1.92;;
63370;SDS011;72561;48.336;14.472;2023-12-14T09:13:23;3.72;;;2.03;;
63370;SDS011;72561;48.336;14.472;2023-12-14T09:15:04;4.05;;;2.15;;
63370;SDS011;72561;48.336;14.472;2023-12-14T09:16:48;5.00;;;2.00;;
63370;SDS011;72561;48.336;14.472;2023-12-14T09:18:29;3.30;;;1.80;;
63370;SDS011;72561;48.336;14.472;2023-12-14T09:20:10;4.35;;;2.28;;
63370;SDS011;72561;48.336;14.472;2023-12-14T09:21:52;3.90;;;2.10;;
63370;SDS011;72561;48.336;14.472;2023-12-14T09:23:33;3.47;;;2.10;;
63370;SDS011;72561;48.336;14.472;2023-12-14T09:25:15;3.80;;;2.17;;
63370;SDS011;72561;48.336;14.472;2023-12-14T09:28:37;3.78;;;2.05;;
63370;SDS011;72561;48.336;14.472;2023-12-14T09:30:19;3.38;;;1.85;;
63370;SDS011;72561;48.336;14.472;2023-12-14T09:32:02;3.63;;;1.80;;
63370;SDS011;72561;48.336;14.472;2023-12-14T09:33:44;3.50;;;2.00;;
63370;SDS011;72561;48.336;14.472;2023-12-14T09:35:25;3.58;;;1.90;;
63370;SDS011;72561;48.336;14.472;2023-12-14T09:37:06;3.30;;;1.92;;
63370;SDS011;72561;48.336;14.472;2023-12-14T09:38:50;4.38;;;1.95;;
63370;SDS011;72561;48.336;14.472;2023-12-14T09:40:31;3.35;;;1.90;;
63370;SDS011;72561;48.336;14.472;2023-12-14T09:42:16;3.55;;;2.15;;
63370;SDS011;72561;48.336;14.472;2023-12-14T09:44:02;3.83;;;1.88;;
63370;SDS011;72561;48.336;14.472;2023-12-14T09:45:43;3.60;;;1.95;;
63370;SDS011;72561;48.336;14.472;2023-12-14T09:47:28;3.72;;;2.05;;
63370;SDS011;72561;48.336;14.472;2023-12-14T09:49:12;3.47;;;2.00;;
63370;SDS011;72561;48.336;14.472;2023-12-14T09:50:57;3.38;;;1.67;;
63370;SDS011;72561;48.336;14.472;2023-12-14T09:52:38;3.90;;;1.98;;
63370;SDS011;72561;48.336;14.472;2023-12-14T09:54:19;4.30;;;2.10;;
63370;SDS011;72561;48.336;14.472;2023-12-14T09:56:01;3.67;;;2.10;;
63370;SDS011;72561;48.336;14.472;2023-12-14T09:57:42;3.47;;;1.85;;
63370;SDS011;72561;48.336;14.472;2023-12-14T10:00:45;3.65;;;1.92;;
63370;SDS011;72561;48.336;14.472;2023-12-14T10:02:27;3.50;;;1.88;;
63370;SDS011;72561;48.336;14.472;2023-12-14T10:04:08;3.28;;;1.73;;
63370;SDS011;72561;48.336;14.472;2023-12-14T10:05:51;3.75;;;1.70;;
63370;SDS011;72561;48.336;14.472;2023-12-14T10:07:33;2.90;;;1.65;;
63370;SDS011;72561;48.336;14.472;2023-12-14T10:09:14;3.38;;;1.90;;
63370;SDS011;72561;48.336;14.472;2023-12-14T10:10:55;3.38;;;1.77;;